Time;durP1;ratioP1;P1;durP2;ratioP2;P2;SDS_P1;SDS_P2;PMS_P1;PMS_P2;Temp;Humidity;BMP_temperature;BMP_pressure;BME280_temperature;BME280_humidity;BME280_pressure;Samples;Min_cycle;Max_cycle;Signal;HPM_P1;HPM_P2
2023/07/16 00:01:05;;;;;;;13.32;3.00;;;17.60;99.90;;;;;;5044545;27;20099;-79
2023/07/16 00:03:31;;;;;;;10.77;2.95;;;17.50;99.90;;;;;;5044679;27;20077;-79
2023/07/16 00:05:56;;;;;;;8.75;2.67;;;17.50;99.90;;;;;;5015265;27;20041;-80
2023/07/16 00:08:22;;;;;;;10.13;2.88;;;17.50;99.90;;;;;;5040367;28;20168;-79
2023/07/16 00:10:48;;;;;;;10.73;2.80;;;17.50;99.90;;;;;;5041332;28;20072;-79
2023/07/16 00:13:14;;;;;;;13.27;3.00;;;17.40;99.90;;;;;;5041031;28;20282;-79
2023/07/16 00:15:39;;;;;;;11.32;3.00;;;17.40;99.90;;;;;;5041018;28;20051;-79
2023/07/16 00:18:05;;;;;;;9.55;2.83;;;17.40;99.90;;;;;;5020251;27;20303;-79
2023/07/16 00:20:32;;;;;;;12.57;3.67;;;17.40;99.90;;;;;;5044563;27;20025;-78
2023/07/16 00:22:58;;;;;;;10.85;2.88;;;17.40;99.90;;;;;;5060753;27;20098;-79
2023/07/16 00:25:24;;;;;;;12.20;3.30;;;17.40;99.90;;;;;;5043989;27;20049;-79
2023/07/16 00:27:49;;;;;;;13.27;3.05;;;17.40;99.90;;;;;;5021396;27;20032;-79
2023/07/16 00:30:15;;;;;;;13.30;3.20;;;17.40;99.90;;;;;;5008082;27;20073;-79
2023/07/16 00:32:41;;;;;;;12.23;3.08;;;17.30;99.90;;;;;;5023764;27;20246;-79
2023/07/16 00:35:07;;;;;;;13.45;3.42;;;17.40;99.90;;;;;;5039239;27;20039;-79
2023/07/16 00:37:34;;;;;;;11.13;3.10;;;17.30;99.90;;;;;;5041129;28;20055;-79
2023/07/16 00:40:00;;;;;;;11.30;3.20;;;17.30;99.90;;;;;;5039178;28;20070;-79
2023/07/16 00:42:25;;;;;;;12.55;3.25;;;17.30;99.90;;;;;;5008195;28;20044;-79
2023/07/16 00:44:51;;;;;;;9.98;2.95;;;17.30;99.90;;;;;;5041455;28;20078;-79
2023/07/16 00:47:17;;;;;;;14.90;3.55;;;17.30;99.90;;;;;;5024353;28;20029;-79
2023/07/16 00:49:43;;;;;;;13.57;3.00;;;17.20;99.90;;;;;;5037009;28;20033;-79
2023/07/16 00:52:16;;;;;;;9.30;3.03;;;17.20;99.90;;;;;;5044517;28;20190;-79
2023/07/16 00:54:42;;;;;;;10.55;2.67;;;17.20;99.90;;;;;;5046203;27;20033;-79
2023/07/16 00:57:08;;;;;;;10.90;3.00;;;17.20;99.90;;;;;;5023876;27;20298;-79
2023/07/16 00:59:34;;;;;;;14.02;3.30;;;17.20;99.90;;;;;;5024054;27;20032;-79
2023/07/16 01:01:59;;;;;;;13.25;2.95;;;17.20;99.90;;;;;;5041680;27;20040;-79
2023/07/16 01:04:25;;;;;;;12.85;3.05;;;17.20;99.90;;;;;;5056177;27;20049;-78
2023/07/16 01:06:55;;;;;;;11.00;2.78;;;17.10;99.90;;;;;;5061972;27;20045;-79
2023/07/16 01:09:21;;;;;;;12.50;3.33;;;17.10;99.90;;;;;;5043874;28;20041;-78
2023/07/16 01:11:48;;;;;;;13.63;2.97;;;17.10;99.90;;;;;;5023572;27;20053;-78
2023/07/16 01:14:16;;;;;;;12.13;3.08;;;17.20;99.90;;;;;;5044187;28;20033;-78
2023/07/16 01:16:42;;;;;;;10.60;2.92;;;17.20;99.90;;;;;;5042957;27;20224;-78
2023/07/16 01:19:09;;;;;;;11.70;3.53;;;17.20;99.90;;;;;;5043981;28;20342;-79
2023/07/16 01:22:07;;;;;;;10.90;3.47;;;17.20;99.90;;;;;;5025375;28;20092;-79
2023/07/16 01:25:26;;;;;;;11.82;3.33;;;17.20;99.90;;;;;;5043875;28;20202;-79
2023/07/16 01:28:04;;;;;;;12.93;3.38;;;16.90;99.90;;;;;;5062660;28;20033;-80
2023/07/16 01:30:31;;;;;;;13.50;3.80;;;17.20;99.90;;;;;;5034722;27;20085;-79
2023/07/16 01:32:57;;;;;;;11.85;3.40;;;17.20;99.90;;;;;;5023730;28;20052;-79
2023/07/16 01:35:23;;;;;;;10.40;2.95;;;17.20;99.90;;;;;;5026891;28;20123;-79
2023/07/16 01:37:49;;;;;;;13.02;3.40;;;17.20;99.90;;;;;;5043430;28;20076;-78
2023/07/16 01:40:15;;;;;;;11.80;3.00;;;17.20;99.90;;;;;;5026775;28;20084;-79
2023/07/16 01:42:40;;;;;;;14.35;3.30;;;17.20;99.90;;;;;;5008765;27;20033;-80
2023/07/16 01:45:06;;;;;;;11.45;3.20;;;17.10;99.90;;;;;;5043320;28;20033;-79
2023/07/16 01:47:50;;;;;;;12.45;2.97;;;17.10;99.90;;;;;;5042974;27;20059;-79
2023/07/16 01:50:15;;;;;;;11.55;3.13;;;17.10;99.90;;;;;;5042989;28;20181;-80
2023/07/16 01:52:41;;;;;;;12.27;3.00;;;17.10;99.90;;;;;;5022747;28;20017;-79
2023/07/16 01:55:07;;;;;;;9.95;2.53;;;17.10;99.90;;;;;;5038277;28;20349;-79
2023/07/16 01:57:33;;;;;;;11.30;2.92;;;17.10;99.90;;;;;;5042509;28;20040;-79
2023/07/16 01:59:59;;;;;;;12.68;3.28;;;17.10;99.90;;;;;;5042120;28;20057;-79
2023/07/16 02:02:24;;;;;;;12.23;2.60;;;17.10;99.90;;;;;;5038296;28;20105;-79
2023/07/16 02:04:50;;;;;;;10.75;2.95;;;17.10;99.90;;;;;;5026710;28;20073;-79
2023/07/16 02:07:16;;;;;;;10.75;2.80;;;17.00;99.90;;;;;;5026870;28;20068;-79
2023/07/16 02:09:41;;;;;;;10.40;2.85;;;17.00;99.90;;;;;;5043187;28;20024;-80
2023/07/16 02:12:07;;;;;;;11.93;2.67;;;17.00;99.90;;;;;;5025323;28;20036;-79
2023/07/16 02:14:33;;;;;;;10.38;2.97;;;17.00;99.90;;;;;;5026787;27;20021;-79
2023/07/16 02:16:58;;;;;;;13.43;3.30;;;17.00;99.90;;;;;;5042094;28;20216;-79
2023/07/16 02:19:25;;;;;;;11.40;2.80;;;17.00;99.90;;;;;;5022935;28;20083;-78
2023/07/16 02:21:51;;;;;;;12.20;3.10;;;16.90;99.90;;;;;;5041718;28;20032;-79
2023/07/16 02:24:17;;;;;;;9.75;3.20;;;16.90;99.90;;;;;;5042111;27;20032;-79
2023/07/16 02:26:43;;;;;;;13.02;3.47;;;16.90;99.90;;;;;;5026368;27;20029;-79
2023/07/16 02:29:08;;;;;;;9.48;2.95;;;16.90;99.90;;;;;;5026656;28;20037;-80
2023/07/16 02:31:35;;;;;;;12.95;3.42;;;16.90;99.90;;;;;;5026095;28;20025;-80
2023/07/16 02:34:01;;;;;;;11.70;3.50;;;16.90;99.90;;;;;;5003869;28;20029;-80
2023/07/16 02:36:27;;;;;;;12.10;3.35;;;16.90;99.90;;;;;;5020932;28;20089;-79
2023/07/16 02:38:52;;;;;;;10.75;3.50;;;16.90;99.90;;;;;;5059213;27;20179;-79
2023/07/16 02:41:18;;;;;;;13.18;3.65;;;16.90;99.90;;;;;;5029077;27;20095;-79
2023/07/16 02:43:46;;;;;;;14.35;3.65;;;16.90;99.90;;;;;;5008181;28;20170;-79
2023/07/16 02:46:12;;;;;;;12.10;3.95;;;17.00;99.90;;;;;;5042134;28;20033;-79
2023/07/16 02:48:37;;;;;;;11.85;3.90;;;17.00;99.90;;;;;;5025767;28;20029;-79
2023/07/16 02:51:03;;;;;;;13.32;4.30;;;17.20;99.90;;;;;;5041836;28;20221;-80
2023/07/16 02:53:29;;;;;;;11.40;3.97;;;16.90;99.90;;;;;;5039579;27;20033;-80
2023/07/16 02:55:54;;;;;;;11.07;3.80;;;17.00;99.90;;;;;;5034534;28;20254;-80
2023/07/16 02:58:20;;;;;;;16.33;4.05;;;17.00;99.90;;;;;;5009058;28;20068;-79
2023/07/16 03:00:46;;;;;;;14.00;3.90;;;17.00;99.90;;;;;;5025582;28;20045;-79
2023/07/16 03:03:12;;;;;;;13.35;4.13;;;17.00;99.90;;;;;;5019495;28;20041;-79
2023/07/16 03:05:37;;;;;;;10.77;3.80;;;17.00;99.90;;;;;;5077453;28;20454;-80
2023/07/16 03:08:03;;;;;;;10.20;3.88;;;17.10;99.90;;;;;;5005335;28;20029;-79
2023/07/16 03:10:29;;;;;;;12.00;3.72;;;17.10;99.90;;;;;;5005271;28;20057;-79
2023/07/16 03:12:55;;;;;;;12.40;4.00;;;17.10;99.90;;;;;;5038650;28;20178;-80
2023/07/16 03:15:20;;;;;;;11.77;3.75;;;17.10;99.90;;;;;;5019368;28;20033;-79
2023/07/16 03:17:46;;;;;;;12.30;4.13;;;17.10;99.90;;;;;;5021606;28;20233;-79
2023/07/16 03:20:13;;;;;;;11.15;3.78;;;17.10;99.90;;;;;;5030167;28;20065;-79
2023/07/16 03:22:38;;;;;;;11.52;3.88;;;17.10;99.90;;;;;;5024432;28;20037;-78
2023/07/16 03:25:05;;;;;;;12.65;3.92;;;17.10;99.90;;;;;;5005402;28;20060;-80
2023/07/16 03:27:31;;;;;;;12.98;4.18;;;17.10;99.90;;;;;;5015414;28;20034;-80
2023/07/16 03:29:57;;;;;;;11.75;4.55;;;17.10;99.90;;;;;;5107222;27;20034;-79
2023/07/16 03:32:22;;;;;;;12.73;3.80;;;17.10;99.90;;;;;;5039577;28;20090;-79
2023/07/16 03:34:48;;;;;;;13.80;4.18;;;17.10;99.90;;;;;;5087301;28;20025;-80
2023/07/16 03:37:13;;;;;;;12.07;3.58;;;17.10;99.90;;;;;;4990505;28;20037;-80
2023/07/16 03:39:39;;;;;;;13.15;4.20;;;17.10;99.90;;;;;;5010220;28;20139;-79
2023/07/16 03:42:05;;;;;;;12.95;4.00;;;17.10;99.90;;;;;;5031943;28;20029;-80
2023/07/16 03:44:31;;;;;;;12.15;4.00;;;17.10;99.90;;;;;;5024845;28;20319;-79
2023/07/16 03:46:56;;;;;;;11.43;4.07;;;17.10;99.90;;;;;;5004485;28;20034;-79
2023/07/16 03:49:22;;;;;;;11.57;4.35;;;17.10;99.90;;;;;;5056517;28;20231;-80
2023/07/16 03:51:48;;;;;;;13.07;3.83;;;17.10;99.90;;;;;;5041248;28;20136;-80
2023/07/16 03:54:13;;;;;;;12.02;4.10;;;17.00;99.90;;;;;;4991104;28;20038;-79
2023/07/16 03:56:39;;;;;;;14.70;4.18;;;17.00;99.90;;;;;;5014629;28;20056;-79
2023/07/16 03:59:05;;;;;;;14.27;4.72;;;17.00;99.90;;;;;;5037724;28;20097;-79
2023/07/16 04:01:30;;;;;;;10.70;4.25;;;17.00;99.90;;;;;;5044347;27;20033;-79
2023/07/16 04:03:56;;;;;;;15.55;4.32;;;17.00;99.90;;;;;;5015381;28;20045;-79
2023/07/16 04:06:21;;;;;;;10.85;3.83;;;17.00;99.90;;;;;;5023551;28;20025;-79
2023/07/16 04:08:47;;;;;;;11.02;3.80;;;17.00;99.90;;;;;;5021917;28;20065;-79
2023/07/16 04:11:13;;;;;;;11.55;4.28;;;17.00;99.90;;;;;;5024372;28;20040;-79
2023/07/16 04:13:39;;;;;;;11.93;4.32;;;17.10;99.90;;;;;;5023150;28;20029;-79
2023/07/16 04:16:04;;;;;;;15.02;5.05;;;17.10;99.90;;;;;;5024183;28;20244;-78
2023/07/16 04:18:30;;;;;;;10.23;4.30;;;17.10;99.90;;;;;;5021915;28;20044;-79
2023/07/16 04:20:56;;;;;;;15.00;4.57;;;17.10;99.90;;;;;;5024962;28;20040;-79
2023/07/16 04:23:22;;;;;;;14.98;4.50;;;17.10;99.90;;;;;;5027676;28;20044;-80
2023/07/16 04:25:53;;;;;;;12.32;4.50;;;17.10;99.90;;;;;;5044298;27;20032;-80
2023/07/16 04:28:18;;;;;;;13.15;4.40;;;17.20;99.90;;;;;;5039895;27;20037;-80
2023/07/16 04:30:44;;;;;;;12.10;4.70;;;17.20;99.90;;;;;;5037610;28;20040;-79
2023/07/16 04:33:10;;;;;;;13.30;4.80;;;17.20;99.90;;;;;;5024982;27;20053;-79
2023/07/16 04:35:35;;;;;;;10.75;4.03;;;17.20;99.90;;;;;;5032180;27;20057;-79
2023/07/16 04:38:01;;;;;;;11.90;4.80;;;17.30;99.90;;;;;;5042807;28;20028;-79
2023/07/16 04:40:29;;;;;;;13.85;4.40;;;17.30;99.90;;;;;;5023199;28;20407;-80
2023/07/16 04:42:54;;;;;;;12.00;4.50;;;17.30;99.90;;;;;;5030850;27;20032;-79
2023/07/16 04:45:20;;;;;;;12.77;4.95;;;17.90;99.90;;;;;;5026123;27;20345;-79
2023/07/16 04:47:46;;;;;;;15.48;4.47;;;17.40;99.90;;;;;;5010373;27;20108;-79
2023/07/16 04:50:11;;;;;;;12.65;4.65;;;17.40;99.90;;;;;;5027073;27;20267;-79
2023/07/16 04:52:38;;;;;;;12.27;5.20;;;17.50;99.90;;;;;;5043725;27;20040;-79
2023/07/16 04:55:04;;;;;;;13.73;5.13;;;17.50;99.90;;;;;;5027469;27;20029;-80
2023/07/16 04:57:29;;;;;;;13.38;5.18;;;17.50;99.90;;;;;;5041011;27;20278;-78
2023/07/16 04:59:55;;;;;;;14.52;4.85;;;17.50;99.90;;;;;;5010996;28;20179;-79
2023/07/16 05:02:21;;;;;;;13.13;5.05;;;17.60;99.90;;;;;;5027598;28;20040;-79
2023/07/16 05:04:49;;;;;;;14.40;5.03;;;17.50;99.90;;;;;;5020380;28;20091;-79
2023/07/16 05:07:15;;;;;;;12.43;4.72;;;17.60;99.90;;;;;;5050251;28;20037;-79
2023/07/16 05:09:42;;;;;;;13.43;4.80;;;17.60;99.90;;;;;;5044415;27;20029;-79
2023/07/16 05:12:08;;;;;;;14.40;4.90;;;17.70;99.90;;;;;;5026271;28;20073;-79
2023/07/16 05:14:44;;;;;;;13.32;5.05;;;17.70;99.90;;;;;;5034310;28;20033;-79
2023/07/16 05:17:10;;;;;;;15.63;5.07;;;17.70;99.90;;;;;;5056340;27;20060;-79
2023/07/16 05:19:36;;;;;;;14.10;5.35;;;17.80;99.90;;;;;;5018184;28;20055;-79
2023/07/16 05:22:02;;;;;;;14.27;5.10;;;17.80;99.90;;;;;;5015958;28;20108;-80
2023/07/16 05:24:28;;;;;;;12.57;4.07;;;17.90;99.90;;;;;;5043177;27;20056;-79
2023/07/16 05:26:54;;;;;;;11.98;4.57;;;17.90;99.90;;;;;;5026392;27;20285;-80
2023/07/16 05:29:20;;;;;;;12.85;4.38;;;18.00;99.90;;;;;;5041864;28;20039;-79
2023/07/16 05:31:46;;;;;;;13.23;4.97;;;18.00;99.90;;;;;;5026503;27;20104;-79
2023/07/16 05:34:12;;;;;;;12.88;4.47;;;18.00;99.90;;;;;;5000159;28;20167;-79
2023/07/16 05:36:38;;;;;;;13.38;4.82;;;18.00;99.90;;;;;;5018818;27;20037;-79
2023/07/16 05:39:03;;;;;;;12.57;4.50;;;18.10;99.90;;;;;;5027824;28;20096;-79
2023/07/16 05:41:29;;;;;;;11.07;4.18;;;18.10;99.90;;;;;;5056184;27;20033;-79
2023/07/16 05:43:55;;;;;;;13.73;4.32;;;18.20;99.90;;;;;;5036354;27;20136;-79
2023/07/16 05:46:20;;;;;;;11.63;4.18;;;18.30;99.90;;;;;;5028953;27;20228;-79
2023/07/16 05:48:46;;;;;;;12.60;4.20;;;18.30;99.90;;;;;;5016852;27;20050;-79
2023/07/16 05:51:12;;;;;;;10.73;3.95;;;18.40;99.90;;;;;;5044066;27;20021;-79
2023/07/16 05:53:37;;;;;;;12.98;4.55;;;18.40;99.90;;;;;;5012651;28;20223;-80
2023/07/16 05:56:03;;;;;;;10.65;3.92;;;18.50;99.90;;;;;;5027610;28;20032;-78
2023/07/16 05:58:29;;;;;;;11.77;3.83;;;18.50;99.90;;;;;;5050778;27;20259;-79
2023/07/16 06:00:55;;;;;;;11.45;3.85;;;18.50;99.90;;;;;;5008775;27;20064;-78
2023/07/16 06:03:20;;;;;;;11.43;3.97;;;18.50;99.90;;;;;;5034764;27;20025;-79
2023/07/16 06:05:46;;;;;;;11.80;4.40;;;18.60;99.90;;;;;;5026341;28;20029;-78
2023/07/16 06:08:12;;;;;;;12.20;4.07;;;18.10;99.90;;;;;;5025018;27;20033;-78
2023/07/16 06:10:38;;;;;;;10.25;3.63;;;18.60;99.90;;;;;;5040348;27;20028;-78
2023/07/16 06:13:04;;;;;;;11.60;4.57;;;18.70;99.90;;;;;;5052666;27;20048;-78
2023/07/16 06:15:30;;;;;;;11.68;3.85;;;18.80;99.90;;;;;;5058642;27;20055;-79
2023/07/16 06:17:55;;;;;;;13.07;4.13;;;18.80;99.90;;;;;;5023544;28;20060;-78
2023/07/16 06:20:21;;;;;;;13.15;4.47;;;18.80;99.90;;;;;;5024645;28;20033;-79
2023/07/16 06:22:47;;;;;;;15.02;4.53;;;18.80;99.90;;;;;;5017912;27;20246;-79
2023/07/16 06:25:13;;;;;;;11.48;4.03;;;18.90;99.90;;;;;;5015690;28;20028;-79
2023/07/16 06:27:38;;;;;;;12.80;3.97;;;18.80;99.90;;;;;;5042582;27;20976;-79
2023/07/16 06:30:05;;;;;;;12.88;4.05;;;18.80;99.90;;;;;;5046850;27;20033;-80
2023/07/16 06:32:31;;;;;;;10.77;3.97;;;18.80;99.90;;;;;;5009644;28;20048;-78
2023/07/16 06:34:57;;;;;;;12.73;4.10;;;18.80;99.90;;;;;;5028283;28;20032;-78
2023/07/16 06:37:23;;;;;;;11.38;3.75;;;18.80;99.90;;;;;;5042584;27;20044;-79
2023/07/16 06:39:49;;;;;;;12.65;4.25;;;18.80;99.90;;;;;;5025898;28;20048;-79
2023/07/16 06:42:15;;;;;;;14.18;4.25;;;18.70;99.90;;;;;;5039349;27;20029;-78
2023/07/16 06:44:41;;;;;;;13.77;4.78;;;18.60;99.90;;;;;;5044088;28;20167;-79
2023/07/16 06:47:07;;;;;;;11.45;4.43;;;18.60;99.90;;;;;;5009111;28;20130;-79
2023/07/16 06:49:32;;;;;;;12.77;4.55;;;18.60;99.90;;;;;;5042573;27;20056;-79
2023/07/16 06:52:01;;;;;;;14.18;4.43;;;18.60;99.90;;;;;;5010725;28;20024;-79
2023/07/16 06:54:27;;;;;;;11.20;4.28;;;18.70;99.90;;;;;;5026571;28;20037;-79
2023/07/16 06:56:52;;;;;;;13.38;4.90;;;18.80;99.90;;;;;;5063080;27;20186;-79
2023/07/16 06:59:18;;;;;;;12.98;4.63;;;18.90;99.90;;;;;;5022465;28;20117;-79
2023/07/16 07:01:44;;;;;;;12.82;4.72;;;18.90;99.90;;;;;;5052595;27;20073;-80
2023/07/16 07:04:09;;;;;;;13.45;4.40;;;19.00;99.90;;;;;;5017138;27;20045;-79
2023/07/16 07:06:35;;;;;;;12.32;4.55;;;19.10;99.90;;;;;;5034961;27;20258;-79
2023/07/16 07:09:01;;;;;;;14.45;4.70;;;19.10;99.90;;;;;;5068970;27;20055;-78
2023/07/16 07:11:26;;;;;;;14.65;4.90;;;19.10;99.90;;;;;;5039165;27;20255;-79
2023/07/16 07:13:52;;;;;;;13.85;5.05;;;19.20;99.90;;;;;;5039577;27;20036;-78
2023/07/16 07:16:19;;;;;;;11.68;4.38;;;19.30;99.90;;;;;;5031660;27;20035;-79
2023/07/16 07:18:53;;;;;;;12.95;5.03;;;19.20;99.90;;;;;;5100286;27;20385;-77
2023/07/16 07:21:19;;;;;;;12.65;5.00;;;19.20;99.90;;;;;;5081623;28;20149;-79
2023/07/16 07:23:45;;;;;;;14.10;4.88;;;19.20;99.90;;;;;;5097663;28;20143;-78
2023/07/16 07:26:10;;;;;;;12.35;4.80;;;19.20;99.90;;;;;;5092187;28;20029;-78
2023/07/16 07:28:36;;;;;;;11.30;4.90;;;19.20;99.90;;;;;;5095082;28;20016;-78
2023/07/16 07:31:02;;;;;;;11.57;4.40;;;19.20;99.90;;;;;;5082127;28;20316;-78
2023/07/16 07:33:27;;;;;;;14.38;4.32;;;19.20;99.90;;;;;;5077065;28;20023;-77
2023/07/16 07:35:55;;;;;;;13.38;4.43;;;19.30;99.90;;;;;;5059590;28;20078;-78
2023/07/16 07:38:21;;;;;;;10.60;4.10;;;;;;;;;;5077833;28;20016;-77
2023/07/16 07:40:47;;;;;;;12.68;4.90;;;19.20;99.90;;;;;;5096870;28;20209;-78
2023/07/16 07:43:12;;;;;;;12.77;4.80;;;19.10;99.90;;;;;;5072775;28;20020;-78
2023/07/16 07:45:38;;;;;;;12.65;4.93;;;19.10;99.90;;;;;;5069234;28;20052;-78
2023/07/16 07:48:05;;;;;;;13.15;4.25;;;19.10;99.90;;;;;;5097157;28;20062;-77
2023/07/16 07:50:30;;;;;;;13.57;4.78;;;19.20;99.90;;;;;;5097443;28;20226;-78
2023/07/16 07:52:56;;;;;;;14.02;4.82;;;19.40;99.90;;;;;;5093556;28;20131;-78
2023/07/16 07:55:22;;;;;;;12.25;4.68;;;19.50;99.90;;;;;;5086913;28;20246;-78
2023/07/16 07:57:48;;;;;;;12.57;4.95;;;19.60;99.90;;;;;;5091359;28;20028;-78
2023/07/16 08:00:13;;;;;;;10.85;4.18;;;19.60;99.90;;;;;;5069862;28;20142;-77
2023/07/16 08:02:40;;;;;;;10.85;4.30;;;19.70;99.90;;;;;;5061272;28;20028;-78
2023/07/16 08:05:06;;;;;;;11.90;4.38;;;19.70;99.90;;;;;;5060650;28;20317;-78
2023/07/16 08:07:31;;;;;;;11.00;4.50;;;19.60;99.90;;;;;;5072230;28;20032;-79
2023/07/16 08:09:57;;;;;;;13.10;4.28;;;19.50;99.90;;;;;;5073788;28;20207;-79
2023/07/16 08:12:23;;;;;;;10.85;4.03;;;19.50;99.90;;;;;;5047464;28;20092;-78
2023/07/16 08:14:49;;;;;;;12.27;4.07;;;19.50;99.90;;;;;;5054190;28;20234;-79
2023/07/16 08:17:14;;;;;;;13.52;4.95;;;19.60;99.90;;;;;;5071290;28;20049;-79
2023/07/16 08:19:40;;;;;;;13.23;5.13;;;19.70;99.90;;;;;;5058353;28;20100;-78
2023/07/16 08:22:06;;;;;;;11.88;4.47;;;19.70;99.90;;;;;;5088046;28;20036;-79
2023/07/16 08:24:31;;;;;;;10.98;4.03;;;19.70;99.90;;;;;;5062037;28;20281;-79
2023/07/16 08:26:57;;;;;;;12.40;4.13;;;19.60;99.90;;;;;;5064522;28;20162;-79
2023/07/16 08:29:23;;;;;;;13.43;4.28;;;19.50;99.90;;;;;;5067358;28;20070;-78
2023/07/16 08:31:48;;;;;;;11.93;4.57;;;19.50;99.90;;;;;;5067814;28;20029;-78
2023/07/16 08:34:14;;;;;;;12.75;4.30;;;19.30;99.90;;;;;;5077125;28;20064;-79
2023/07/16 08:36:40;;;;;;;11.90;4.30;;;19.10;99.90;;;;;;5053946;28;20055;-78
2023/07/16 08:39:07;;;;;;;11.10;4.30;;;18.90;99.90;;;;;;5071903;28;20021;-79
2023/07/16 08:41:33;;;;;;;16.90;4.57;;;18.90;99.90;;;;;;5056998;28;20087;-79
2023/07/16 08:43:59;;;;;;;10.80;4.53;;;18.90;99.90;;;;;;5076105;28;20047;-78
2023/07/16 08:46:25;;;;;;;11.90;4.35;;;18.80;99.90;;;;;;5084155;28;20087;-79
2023/07/16 08:48:51;;;;;;;13.95;4.57;;;18.80;99.90;;;;;;5084567;28;20214;-78
2023/07/16 08:51:20;;;;;;;11.05;4.30;;;18.80;99.90;;;;;;5068553;28;20268;-79
2023/07/16 08:53:47;;;;;;;11.73;4.60;;;18.90;99.90;;;;;;5057342;28;20036;-78
2023/07/16 08:56:13;;;;;;;11.30;4.82;;;19.20;99.90;;;;;;5075642;28;20036;-78
2023/07/16 08:58:41;;;;;;;14.65;4.68;;;19.40;99.90;;;;;;5068818;28;20301;-78
2023/07/16 09:01:07;;;;;;;11.23;4.20;;;19.80;99.90;;;;;;5067089;28;20087;-78
2023/07/16 09:03:32;;;;;;;13.80;4.43;;;20.00;99.90;;;;;;5047950;28;20044;-79
2023/07/16 09:05:58;;;;;;;14.48;5.20;;;20.30;99.90;;;;;;5045117;28;20016;-78
2023/07/16 09:08:28;;;;;;;13.63;4.80;;;20.40;99.90;;;;;;5081991;28;20121;-78
2023/07/16 09:10:57;;;;;;;11.85;4.43;;;20.60;99.90;;;;;;5046568;28;20037;-78
2023/07/16 09:13:26;;;;;;;11.77;4.65;;;20.60;99.90;;;;;;5073401;28;20067;-78
2023/07/16 09:15:56;;;;;;;11.20;4.57;;;20.70;99.90;;;;;;5075756;28;20061;-79
2023/07/16 09:18:26;;;;;;;11.98;4.57;;;20.70;99.90;;;;;;5063559;28;20250;-79
2023/07/16 09:21:02;;;;;;;11.77;4.47;;;20.90;99.90;;;;;;5068051;28;20060;-78
2023/07/16 09:23:30;;;;;;;13.30;4.93;;;20.90;99.90;;;;;;5066877;28;20032;-79
2023/07/16 09:25:57;;;;;;;11.70;4.60;;;21.00;99.90;;;;;;5082258;28;20333;-79
2023/07/16 09:28:23;;;;;;;15.13;4.38;;;21.00;99.90;;;;;;5083562;28;20028;-80
2023/07/16 09:30:49;;;;;;;13.23;4.97;;;21.00;99.90;;;;;;5038666;28;20028;-80
2023/07/16 09:33:16;;;;;;;11.93;4.50;;;20.80;99.90;;;;;;5086631;28;20029;-80
2023/07/16 09:35:43;;;;;;;10.75;4.53;;;20.70;99.90;;;;;;5053098;28;20274;-77
2023/07/16 09:38:09;;;;;;;12.27;4.10;;;20.50;99.90;;;;;;5066581;28;20070;-79
2023/07/16 09:40:42;;;;;;;12.07;4.72;;;20.30;99.90;;;;;;5082388;28;20270;-80
2023/07/16 09:43:08;;;;;;;;;;;20.20;99.90;;;;;;5059509;28;20012;-79
2023/07/16 09:45:34;;;;;;;12.95;4.43;;;20.20;99.90;;;;;;5080206;28;20157;-79
2023/07/16 09:48:00;;;;;;;11.75;4.30;;;20.10;99.90;;;;;;5030558;28;20155;-79
2023/07/16 09:50:30;;;;;;;12.05;4.22;;;20.10;99.90;;;;;;5050031;28;20021;-78
2023/07/16 09:52:57;;;;;;;11.45;4.10;;;20.00;99.90;;;;;;5066017;28;20274;-79
2023/07/16 09:55:23;;;;;;;12.00;4.65;;;20.00;99.90;;;;;;5066387;28;20040;-79
2023/07/16 09:57:51;;;;;;;12.77;4.47;;;20.10;99.90;;;;;;5063645;28;20092;-79
2023/07/16 10:00:17;;;;;;;13.10;4.72;;;20.10;99.90;;;;;;5074356;28;20023;-79
2023/07/16 10:02:44;;;;;;;12.45;4.57;;;20.20;99.90;;;;;;5082739;28;20024;-79
2023/07/16 10:05:27;;;;;;;11.98;4.60;;;20.20;99.90;;;;;;5046809;28;20039;-79
2023/07/16 10:07:59;;;;;;;;;;;20.20;99.90;;;;;;5071953;28;20024;-80
2023/07/16 10:10:45;;;;;;;12.32;4.47;;;20.20;99.90;;;;;;5082629;28;20168;-79
2023/07/16 10:13:15;;;;;;;12.20;4.43;;;20.30;99.90;;;;;;5065976;28;20089;-79
2023/07/16 10:15:53;;;;;;;11.30;3.97;;;20.50;99.90;;;;;;5081565;28;20230;-79
2023/07/16 10:18:27;;;;;;;12.55;4.50;;;20.50;99.90;;;;;;5065499;28;20044;-79
2023/07/16 10:20:53;;;;;;;11.65;4.20;;;20.50;99.90;;;;;;5081309;28;20032;-80
2023/07/16 10:23:19;;;;;;;11.77;4.10;;;20.60;99.90;;;;;;5044319;28;20076;-79
2023/07/16 10:26:05;;;;;;;13.00;4.40;;;20.60;99.90;;;;;;5044956;28;20046;-80
2023/07/16 10:28:32;;;;;;;9.85;4.00;;;20.60;99.90;;;;;;5080762;28;20024;-80
2023/07/16 10:30:58;;;;;;;11.40;4.18;;;20.60;99.90;;;;;;5065573;28;20098;-80
2023/07/16 10:33:23;;;;;;;11.30;4.57;;;20.70;99.90;;;;;;5055615;28;20329;-79
2023/07/16 10:35:49;;;;;;;11.82;4.50;;;21.00;99.90;;;;;;5038309;28;20021;-79
2023/07/16 10:38:15;;;;;;;9.70;3.97;;;20.90;99.90;;;;;;5046230;28;20281;-79
2023/07/16 10:40:42;;;;;;;11.25;4.28;;;21.20;99.90;;;;;;5022349;28;20017;-80
2023/07/16 10:43:08;;;;;;;12.20;4.63;;;21.40;99.90;;;;;;5054400;28;20017;-80
2023/07/16 10:45:34;;;;;;;11.60;4.35;;;21.40;99.90;;;;;;5052784;28;20035;-79
2023/07/16 10:47:59;;;;;;;12.77;4.22;;;21.20;99.90;;;;;;5071437;28;20024;-79
2023/07/16 10:50:25;;;;;;;10.32;4.00;;;21.20;99.90;;;;;;5045571;28;20275;-79
2023/07/16 10:52:53;;;;;;;12.73;4.15;;;20.90;99.90;;;;;;5074186;28;20028;-78
2023/07/16 10:55:19;;;;;;;11.05;4.47;;;20.70;99.90;;;;;;5073928;28;20029;-79
2023/07/16 10:57:47;;;;;;;11.18;4.35;;;20.60;99.90;;;;;;5049658;28;20281;-79
2023/07/16 11:00:14;;;;;;;11.85;4.43;;;20.60;99.90;;;;;;5050988;28;20042;-79
2023/07/16 11:02:40;;;;;;;12.65;4.10;;;20.80;99.90;;;;;;5044739;28;20025;-79
2023/07/16 11:05:10;;;;;;;13.50;4.18;;;20.90;99.90;;;;;;5059036;28;20032;-79
2023/07/16 11:07:35;;;;;;;10.02;3.97;;;21.00;99.90;;;;;;5072881;28;20032;-80
2023/07/16 11:10:02;;;;;;;11.38;4.13;;;21.00;99.90;;;;;;5048394;28;20024;-79
2023/07/16 11:12:28;;;;;;;11.02;4.15;;;21.00;99.90;;;;;;5037576;28;20028;-79
2023/07/16 11:14:56;;;;;;;10.43;4.22;;;20.90;99.90;;;;;;5046229;28;20096;-77
2023/07/16 11:17:27;;;;;;;10.80;3.83;;;21.00;99.90;;;;;;5068777;28;20032;-79
2023/07/16 11:19:54;;;;;;;10.80;4.43;;;21.10;99.90;;;;;;5073740;28;20059;-79
2023/07/16 11:22:24;;;;;;;11.98;4.30;;;21.30;99.90;;;;;;5066672;28;20070;-80
2023/07/16 11:24:50;;;;;;;10.93;4.50;;;21.50;99.90;;;;;;5035744;28;20020;-78
2023/07/16 11:27:27;;;;;;;9.50;3.88;;;21.50;99.90;;;;;;5046366;28;20205;-79
2023/07/16 11:29:58;;;;;;;11.63;3.88;;;21.50;99.90;;;;;;5045067;28;20035;-79
2023/07/16 11:32:42;;;;;;;11.48;4.28;;;21.30;99.90;;;;;;5050096;28;20044;-79
2023/07/16 11:35:11;;;;;;;10.95;4.10;;;21.20;99.90;;;;;;5051678;28;20048;-79
2023/07/16 11:37:36;;;;;;;10.88;4.15;;;21.00;99.90;;;;;;5069554;28;20027;-79
2023/07/16 11:40:08;;;;;;;11.65;4.47;;;20.90;99.90;;;;;;5051629;28;20013;-79
2023/07/16 11:42:36;;;;;;;14.43;4.60;;;20.80;99.90;;;;;;5066398;28;20214;-79
2023/07/16 11:45:03;;;;;;;9.93;3.88;;;20.70;99.90;;;;;;5065801;28;20061;-79
2023/07/16 11:47:29;;;;;;;10.00;3.80;;;20.70;99.90;;;;;;5070884;28;20051;-79
2023/07/16 11:49:56;;;;;;;10.82;4.00;;;20.90;99.90;;;;;;5067130;28;20159;-78
2023/07/16 11:52:27;;;;;;;12.02;4.30;;;20.90;99.90;;;;;;5056774;28;20258;-78
2023/07/16 11:54:54;;;;;;;10.47;4.30;;;20.80;99.90;;;;;;5067949;28;20089;-80
2023/07/16 11:57:20;;;;;;;11.00;4.00;;;20.60;99.90;;;;;;5069703;28;20076;-78
2023/07/16 11:59:46;;;;;;;11.73;4.00;;;20.70;99.90;;;;;;5066261;28;20182;-79
2023/07/16 12:02:12;;;;;;;10.73;4.03;;;20.60;99.90;;;;;;5071056;28;20104;-79
2023/07/16 12:04:38;;;;;;;10.65;3.65;;;20.60;99.90;;;;;;5072272;28;20032;-79
2023/07/16 12:07:04;;;;;;;10.93;4.28;;;20.60;99.90;;;;;;5072087;28;20060;-79
2023/07/16 12:09:30;;;;;;;10.80;3.92;;;20.50;99.90;;;;;;5051911;28;20112;-79
2023/07/16 12:11:56;;;;;;;15.77;4.47;;;20.50;99.90;;;;;;5046268;28;20266;-78
2023/07/16 12:14:22;;;;;;;10.20;4.15;;;21.40;99.90;;;;;;5050555;28;20036;-79
2023/07/16 12:16:48;;;;;;;10.57;4.15;;;;;;;;;;5076169;28;20044;-79
2023/07/16 12:19:14;;;;;;;11.65;4.50;;;20.70;99.90;;;;;;5056138;28;20036;-80
2023/07/16 12:21:39;;;;;;;10.70;4.40;;;20.80;99.90;;;;;;5041777;28;20032;-78
2023/07/16 12:24:06;;;;;;;12.88;4.35;;;20.80;99.90;;;;;;5066211;28;20088;-77
2023/07/16 12:26:31;;;;;;;12.23;4.80;;;20.80;99.90;;;;;;5071229;28;20110;-78
2023/07/16 12:28:57;;;;;;;11.25;4.43;;;20.70;99.90;;;;;;5074697;28;20028;-79
2023/07/16 12:31:23;;;;;;;12.55;4.63;;;20.60;99.90;;;;;;5083729;28;20028;-80
2023/07/16 12:33:49;;;;;;;11.23;4.72;;;20.50;99.90;;;;;;5061924;28;20063;-77
2023/07/16 12:36:14;;;;;;;10.35;4.30;;;20.50;99.90;;;;;;5054931;28;20247;-78